sensor_id;sensor_type;location;lat;lon;timestamp;pressure;altitude;pressure_sealevel;temperature;humidity
25130;BME280;13308;50.860;13.664;2022-08-21T04:56:15;96818.78;;;16.35;100.00
25130;BME280;13308;50.860;13.664;2022-08-21T04:58:44;96826.66;;;16.36;100.00
25130;BME280;13308;50.860;13.664;2022-08-21T05:01:14;96822.31;;;16.35;100.00
25130;BME280;13308;50.860;13.664;2022-08-21T05:03:41;96831.16;;;16.34;100.00
25130;BME280;13308;50.860;13.664;2022-08-21T05:06:09;96829.22;;;16.22;100.00
25130;BME280;13308;50.860;13.664;2022-08-21T05:08:36;96831.34;;;16.39;100.00
25130;BME280;13308;50.860;13.664;2022-08-21T05:11:03;96829.53;;;16.45;100.00
25130;BME280;13308;50.860;13.664;2022-08-21T05:13:29;96831.22;;;16.43;100.00
25130;BME280;13308;50.860;13.664;2022-08-21T05:15:55;96829.84;;;16.47;100.00
25130;BME280;13308;50.860;13.664;2022-08-21T05:18:20;96829.44;;;16.58;100.00
25130;BME280;13308;50.860;13.664;2022-08-21T05:20:46;96829.75;;;16.60;100.00
25130;BME280;13308;50.860;13.664;2022-08-21T05:23:13;96827.13;;;16.65;100.00
25130;BME280;13308;50.860;13.664;2022-08-21T05:25:39;96834.03;;;16.82;100.00
25130;BME280;13308;50.860;13.664;2022-08-21T05:28:05;96828.78;;;16.84;100.00
25130;BME280;13308;50.860;13.664;2022-08-21T05:30:31;96839.88;;;16.75;100.00
25130;BME280;13308;50.860;13.664;2022-08-21T05:32:58;96835.84;;;16.76;100.00
25130;BME280;13308;50.860;13.664;2022-08-21T05:35:24;96836.19;;;16.78;100.00
25130;BME280;13308;50.860;13.664;2022-08-21T05:37:50;96839.28;;;16.80;100.00
25130;BME280;13308;50.860;13.664;2022-08-21T05:40:15;96835.16;;;16.94;100.00
25130;BME280;13308;50.860;13.664;2022-08-21T05:42:41;96838.22;;;16.87;100.00
25130;BME280;13308;50.860;13.664;2022-08-21T05:45:06;96836.81;;;16.82;100.00
25130;BME280;13308;50.860;13.664;2022-08-21T05:47:31;96829.09;;;16.86;100.00
25130;BME280;13308;50.860;13.664;2022-08-21T05:49:57;96825.09;;;16.96;100.00
25130;BME280;13308;50.860;13.664;2022-08-21T05:52:22;96828.19;;;16.98;100.00
25130;BME280;13308;50.860;13.664;2022-08-21T05:54:48;96824.81;;;17.03;100.00
25130;BME280;13308;50.860;13.664;2022-08-21T05:57:13;96828.56;;;17.09;100.00
25130;BME280;13308;50.860;13.664;2022-08-21T05:59:39;96830.72;;;17.14;100.00
25130;BME280;13308;50.860;13.664;2022-08-21T06:02:04;96831.84;;;17.26;100.00
25130;BME280;13308;50.860;13.664;2022-08-21T06:04:30;96832.63;;;17.26;100.00
25130;BME280;13308;50.860;13.664;2022-08-21T06:06:55;96834.78;;;17.31;100.00
25130;BME280;13308;50.860;13.664;2022-08-21T06:09:21;96840.97;;;17.35;100.00
25130;BME280;13308;50.860;13.664;2022-08-21T06:11:46;96842.22;;;17.34;100.00
25130;BME280;13308;50.860;13.664;2022-08-21T06:14:15;96842.84;;;17.29;100.00
25130;BME280;13308;50.860;13.664;2022-08-21T06:16:41;96847.00;;;17.25;100.00
25130;BME280;13308;50.860;13.664;2022-08-21T06:19:07;96854.59;;;17.24;100.00
25130;BME280;13308;50.860;13.664;2022-08-21T06:21:32;96839.44;;;17.34;100.00
25130;BME280;13308;50.860;13.664;2022-08-21T06:23:57;96841.91;;;17.32;100.00
25130;BME280;13308;50.860;13.664;2022-08-21T06:26:23;96835.13;;;17.42;100.00
25130;BME280;13308;50.860;13.664;2022-08-21T06:28:49;96836.41;;;17.50;100.00
25130;BME280;13308;50.860;13.664;2022-08-21T06:31:21;96845.06;;;17.61;100.00
25130;BME280;13308;50.860;13.664;2022-08-21T06:33:47;96842.28;;;17.70;100.00
25130;BME280;13308;50.860;13.664;2022-08-21T06:36:13;96843.06;;;17.80;100.00
25130;BME280;13308;50.860;13.664;2022-08-21T06:38:39;96830.50;;;17.93;100.00
25130;BME280;13308;50.860;13.664;2022-08-21T06:41:05;96826.31;;;17.98;100.00
25130;BME280;13308;50.860;13.664;2022-08-21T06:43:31;96827.53;;;18.06;100.00
25130;BME280;13308;50.860;13.664;2022-08-21T06:45:56;96830.97;;;18.19;100.00
25130;BME280;13308;50.860;13.664;2022-08-21T06:48:22;96825.81;;;18.26;100.00
25130;BME280;13308;50.860;13.664;2022-08-21T06:50:48;96832.03;;;18.39;100.00
25130;BME280;13308;50.860;13.664;2022-08-21T06:53:16;96833.59;;;18.31;100.00
25130;BME280;13308;50.860;13.664;2022-08-21T06:55:42;96837.00;;;18.35;100.00
25130;BME280;13308;50.860;13.664;2022-08-21T06:58:08;96834.50;;;18.37;100.00
25130;BME280;13308;50.860;13.664;2022-08-21T07:00:34;96832.66;;;18.34;100.00
25130;BME280;13308;50.860;13.664;2022-08-21T07:02:59;96845.38;;;18.35;100.00
25130;BME280;13308;50.860;13.664;2022-08-21T07:05:26;96848.47;;;18.37;100.00
25130;BME280;13308;50.860;13.664;2022-08-21T07:07:52;96839.91;;;18.41;100.00
25130;BME280;13308;50.860;13.664;2022-08-21T07:10:17;96836.19;;;18.44;100.00
25130;BME280;13308;50.860;13.664;2022-08-21T07:12:43;96840.06;;;18.46;100.00
25130;BME280;13308;50.860;13.664;2022-08-21T07:15:09;96837.88;;;18.50;100.00
25130;BME280;13308;50.860;13.664;2022-08-21T07:17:34;96842.81;;;18.64;100.00
25130;BME280;13308;50.860;13.664;2022-08-21T07:19:59;96837.69;;;18.63;100.00
25130;BME280;13308;50.860;13.664;2022-08-21T07:22:25;96829.44;;;18.68;100.00
25130;BME280;13308;50.860;13.664;2022-08-21T07:24:53;96840.16;;;18.70;100.00
25130;BME280;13308;50.860;13.664;2022-08-21T07:27:18;96838.13;;;18.70;100.00
25130;BME280;13308;50.860;13.664;2022-08-21T07:29:44;96833.81;;;18.60;100.00
25130;BME280;13308;50.860;13.664;2022-08-21T07:32:09;96845.94;;;18.57;100.00
25130;BME280;13308;50.860;13.664;2022-08-21T07:34:34;96840.66;;;18.59;100.00
25130;BME280;13308;50.860;13.664;2022-08-21T07:37:00;96845.94;;;18.57;100.00
25130;BME280;13308;50.860;13.664;2022-08-21T07:39:25;96837.06;;;18.59;100.00
25130;BME280;13308;50.860;13.664;2022-08-21T07:41:50;96849.38;;;18.52;100.00
25130;BME280;13308;50.860;13.664;2022-08-21T07:44:16;96849.06;;;18.50;100.00
25130;BME280;13308;50.860;13.664;2022-08-21T07:46:42;96860.22;;;18.50;100.00
25130;BME280;13308;50.860;13.664;2022-08-21T07:49:07;96855.88;;;18.58;100.00
25130;BME280;13308;50.860;13.664;2022-08-21T07:51:33;96867.97;;;18.64;100.00
25130;BME280;13308;50.860;13.664;2022-08-21T07:53:59;96847.94;;;18.66;100.00
25130;BME280;13308;50.860;13.664;2022-08-21T07:56:26;96861.75;;;18.60;100.00
25130;BME280;13308;50.860;13.664;2022-08-21T07:58:51;96861.59;;;18.64;100.00
25130;BME280;13308;50.860;13.664;2022-08-21T08:01:17;96861.75;;;18.60;100.00
25130;BME280;13308;50.860;13.664;2022-08-21T08:03:43;96856.63;;;18.59;100.00
25130;BME280;13308;50.860;13.664;2022-08-21T08:06:09;96861.00;;;18.60;100.00
25130;BME280;13308;50.860;13.664;2022-08-21T08:08:40;96871.09;;;18.48;100.00
25130;BME280;13308;50.860;13.664;2022-08-21T08:11:06;96877.63;;;18.45;100.00
25130;BME280;13308;50.860;13.664;2022-08-21T08:13:31;96872.19;;;18.42;100.00
25130;BME280;13308;50.860;13.664;2022-08-21T08:15:57;96872.69;;;18.40;100.00
25130;BME280;13308;50.860;13.664;2022-08-21T08:18:22;96869.41;;;18.42;100.00
25130;BME280;13308;50.860;13.664;2022-08-21T08:20:48;96874.53;;;18.43;100.00
25130;BME280;13308;50.860;13.664;2022-08-21T08:23:14;96865.34;;;18.52;100.00
25130;BME280;13308;50.860;13.664;2022-08-21T08:25:39;96862.72;;;18.57;100.00
25130;BME280;13308;50.860;13.664;2022-08-21T08:28:05;96869.34;;;18.69;100.00
25130;BME280;13308;50.860;13.664;2022-08-21T08:30:31;96863.25;;;18.79;100.00
25130;BME280;13308;50.860;13.664;2022-08-21T08:32:57;96871.91;;;18.90;100.00
25130;BME280;13308;50.860;13.664;2022-08-21T08:35:23;96869.72;;;18.94;100.00
25130;BME280;13308;50.860;13.664;2022-08-21T08:37:50;96876.50;;;19.02;100.00
25130;BME280;13308;50.860;13.664;2022-08-21T08:40:39;96879.94;;;18.97;100.00
25130;BME280;13308;50.860;13.664;2022-08-21T08:43:09;96878.22;;;18.99;100.00
25130;BME280;13308;50.860;13.664;2022-08-21T08:45:37;96878.22;;;18.99;100.00
25130;BME280;13308;50.860;13.664;2022-08-21T08:48:06;96878.84;;;19.03;100.00
25130;BME280;13308;50.860;13.664;2022-08-21T08:50:44;96886.41;;;19.12;100.00
25130;BME280;13308;50.860;13.664;2022-08-21T08:53:22;96887.06;;;19.07;100.00
25130;BME280;13308;50.860;13.664;2022-08-21T08:55:51;96891.75;;;19.01;100.00
25130;BME280;13308;50.860;13.664;2022-08-21T08:58:33;96892.03;;;19.03;100.00
25130;BME280;13308;50.860;13.664;2022-08-21T09:01:01;96899.50;;;19.06;100.00
25130;BME280;13308;50.860;13.664;2022-08-21T09:03:29;96897.94;;;19.05;100.00
25130;BME280;13308;50.860;13.664;2022-08-21T09:06:06;96897.94;;;19.05;100.00
25130;BME280;13308;50.860;13.664;2022-08-21T09:08:59;96894.78;;;19.21;100.00
25130;BME280;13308;50.860;13.664;2022-08-21T09:11:37;96895.41;;;19.16;100.00
25130;BME280;13308;50.860;13.664;2022-08-21T09:17:39;96892.78;;;19.45;100.00
25130;BME280;13308;50.860;13.664;2022-08-21T09:20:23;96888.53;;;19.58;100.00
25130;BME280;13308;50.860;13.664;2022-08-21T09:23:03;96879.66;;;19.60;100.00
25130;BME280;13308;50.860;13.664;2022-08-21T09:25:45;96887.66;;;19.76;100.00
25130;BME280;13308;50.860;13.664;2022-08-21T09:28:14;96877.09;;;19.71;100.00
25130;BME280;13308;50.860;13.664;2022-08-21T09:30:40;96890.78;;;19.69;100.00
25130;BME280;13308;50.860;13.664;2022-08-21T09:33:06;96890.78;;;19.69;100.00
25130;BME280;13308;50.860;13.664;2022-08-21T09:35:32;96876.06;;;19.59;100.00
25130;BME280;13308;50.860;13.664;2022-08-21T09:38:05;96887.16;;;19.77;100.00
25130;BME280;13308;50.860;13.664;2022-08-21T09:45:38;96874.16;;;20.12;100.00
25130;BME280;13308;50.860;13.664;2022-08-21T09:48:25;96877.66;;;20.22;100.00
25130;BME280;13308;50.860;13.664;2022-08-21T09:50:51;96879.59;;;20.30;100.00
25130;BME280;13308;50.860;13.664;2022-08-21T09:53:26;96882.38;;;20.16;100.00
25130;BME280;13308;50.860;13.664;2022-08-21T09:55:55;96872.03;;;20.22;100.00
25130;BME280;13308;50.860;13.664;2022-08-21T09:58:42;96880.94;;;20.35;100.00
25130;BME280;13308;50.860;13.664;2022-08-21T10:01:17;96872.09;;;20.51;100.00
25130;BME280;13308;50.860;13.664;2022-08-21T10:03:43;96876.91;;;20.36;98.06
25130;BME280;13308;50.860;13.664;2022-08-21T10:06:09;96873.41;;;20.41;100.00
25130;BME280;13308;50.860;13.664;2022-08-21T10:08:40;96878.16;;;20.49;99.88
25130;BME280;13308;50.860;13.664;2022-08-21T10:11:12;96882.53;;;20.36;98.75
25130;BME280;13308;50.860;13.664;2022-08-21T10:13:59;96872.44;;;20.29;99.12
25130;BME280;13308;50.860;13.664;2022-08-21T10:16:57;96874.78;;;20.31;96.26
25130;BME280;13308;50.860;13.664;2022-08-21T10:19:47;96881.84;;;20.26;97.36
25130;BME280;13308;50.860;13.664;2022-08-21T10:22:32;96882.31;;;20.25;93.67
25130;BME280;13308;50.860;13.664;2022-08-21T10:25:21;96873.63;;;20.52;97.87
25130;BME280;13308;50.860;13.664;2022-08-21T10:36:11;96882.03;;;20.52;99.11
25130;BME280;13308;50.860;13.664;2022-08-21T10:38:52;96887.56;;;20.61;97.08
25130;BME280;13308;50.860;13.664;2022-08-21T10:42:04;96884.75;;;20.61;96.83
25130;BME280;13308;50.860;13.664;2022-08-21T10:47:38;96884.16;;;20.57;91.12
25130;BME280;13308;50.860;13.664;2022-08-21T10:50:28;96879.03;;;20.84;90.18
25130;BME280;13308;50.860;13.664;2022-08-21T10:53:11;96884.66;;;20.70;92.44
25130;BME280;13308;50.860;13.664;2022-08-21T10:55:59;96876.75;;;20.83;91.05
25130;BME280;13308;50.860;13.664;2022-08-21T10:58:33;96897.06;;;20.92;85.95
25130;BME280;13308;50.860;13.664;2022-08-21T11:01:18;96890.34;;;21.19;85.62
25130;BME280;13308;50.860;13.664;2022-08-21T11:03:52;96895.16;;;21.33;85.92
25130;BME280;13308;50.860;13.664;2022-08-21T11:06:25;96887.44;;;21.48;85.87
25130;BME280;13308;50.860;13.664;2022-08-21T11:08:56;96885.09;;;21.75;89.13
25130;BME280;13308;50.860;13.664;2022-08-21T11:11:32;96890.66;;;21.90;89.01
25130;BME280;13308;50.860;13.664;2022-08-21T11:14:03;96890.34;;;21.88;87.08
25130;BME280;13308;50.860;13.664;2022-08-21T11:19:09;96897.84;;;21.96;77.51
25130;BME280;13308;50.860;13.664;2022-08-21T11:22:02;96892.03;;;22.00;78.39
25130;BME280;13308;50.860;13.664;2022-08-21T11:24:43;96891.31;;;22.05;82.58
25130;BME280;13308;50.860;13.664;2022-08-21T11:27:28;96896.59;;;21.97;78.35
25130;BME280;13308;50.860;13.664;2022-08-21T11:29:59;96895.13;;;22.02;76.06
25130;BME280;13308;50.860;13.664;2022-08-21T11:35:17;96889.66;;;21.73;79.46
25130;BME280;13308;50.860;13.664;2022-08-21T11:41:06;96885.97;;;22.07;80.31
25130;BME280;13308;50.860;13.664;2022-08-21T11:46:41;96884.59;;;21.97;78.22
25130;BME280;13308;50.860;13.664;2022-08-21T11:51:54;96876.16;;;21.97;72.39
25130;BME280;13308;50.860;13.664;2022-08-21T11:54:34;96881.78;;;21.97;77.53
25130;BME280;13308;50.860;13.664;2022-08-21T11:57:10;96883.78;;;22.36;77.61
25130;BME280;13308;50.860;13.664;2022-08-21T11:59:43;96880.38;;;22.78;73.19
25130;BME280;13308;50.860;13.664;2022-08-21T12:02:14;96879.91;;;23.10;75.00
25130;BME280;13308;50.860;13.664;2022-08-21T12:05:08;96882.44;;;23.08;79.21
25130;BME280;13308;50.860;13.664;2022-08-21T12:07:40;96880.13;;;23.07;76.47
25130;BME280;13308;50.860;13.664;2022-08-21T12:10:09;96883.00;;;22.56;77.07
25130;BME280;13308;50.860;13.664;2022-08-21T12:12:38;96874.94;;;22.23;74.13
25130;BME280;13308;50.860;13.664;2022-08-21T12:15:13;96877.75;;;22.03;77.52
25130;BME280;13308;50.860;13.664;2022-08-21T12:17:50;96881.50;;;22.15;79.00
25130;BME280;13308;50.860;13.664;2022-08-21T12:22:49;96879.31;;;22.04;79.58
25130;BME280;13308;50.860;13.664;2022-08-21T12:25:18;96874.47;;;22.05;80.99
25130;BME280;13308;50.860;13.664;2022-08-21T12:27:47;96875.22;;;22.25;77.81
25130;BME280;13308;50.860;13.664;2022-08-21T12:32:59;96877.16;;;22.14;74.16
25130;BME280;13308;50.860;13.664;2022-08-21T12:35:31;96879.88;;;22.08;77.23
25130;BME280;13308;50.860;13.664;2022-08-21T12:38:29;96878.75;;;22.20;73.92
25130;BME280;13308;50.860;13.664;2022-08-21T12:41:00;96878.75;;;22.20;73.95
25130;BME280;13308;50.860;13.664;2022-08-21T12:43:40;96869.28;;;21.98;73.28
25130;BME280;13308;50.860;13.664;2022-08-21T12:46:06;96871.34;;;22.23;79.75
25130;BME280;13308;50.860;13.664;2022-08-21T12:48:49;96864.84;;;22.11;73.34
25130;BME280;13308;50.860;13.664;2022-08-21T12:51:23;96866.13;;;21.90;78.03
25130;BME280;13308;50.860;13.664;2022-08-21T12:53:57;96866.88;;;22.11;80.25
25130;BME280;13308;50.860;13.664;2022-08-21T12:56:27;96876.44;;;21.99;78.14
25130;BME280;13308;50.860;13.664;2022-08-21T12:59:05;96864.00;;;22.05;75.74
25130;BME280;13308;50.860;13.664;2022-08-21T13:01:36;96868.50;;;21.77;76.79
25130;BME280;13308;50.860;13.664;2022-08-21T13:04:13;96864.06;;;21.71;76.20
25130;BME280;13308;50.860;13.664;2022-08-21T13:06:43;96864.16;;;21.42;75.57
25130;BME280;13308;50.860;13.664;2022-08-21T13:09:12;96871.44;;;21.34;75.02
25130;BME280;13308;50.860;13.664;2022-08-21T13:11:41;96859.81;;;21.41;73.96
25130;BME280;13308;50.860;13.664;2022-08-21T13:14:22;96864.41;;;21.58;75.21
25130;BME280;13308;50.860;13.664;2022-08-21T13:16:53;96864.78;;;22.06;74.16
25130;BME280;13308;50.860;13.664;2022-08-21T13:19:18;96858.22;;;22.85;71.34
25130;BME280;13308;50.860;13.664;2022-08-21T13:21:45;96862.56;;;23.54;73.85
25130;BME280;13308;50.860;13.664;2022-08-21T13:24:23;96862.97;;;23.78;65.53
25130;BME280;13308;50.860;13.664;2022-08-21T13:26:49;96866.03;;;24.27;68.37
25130;BME280;13308;50.860;13.664;2022-08-21T13:29:18;96857.09;;;24.51;64.57
25130;BME280;13308;50.860;13.664;2022-08-21T13:31:55;96858.72;;;25.12;64.33
25130;BME280;13308;50.860;13.664;2022-08-21T13:34:29;96860.41;;;25.87;65.78
25130;BME280;13308;50.860;13.664;2022-08-21T13:36:59;96867.38;;;26.94;63.02
25130;BME280;13308;50.860;13.664;2022-08-21T13:39:25;96867.91;;;27.28;57.17
25130;BME280;13308;50.860;13.664;2022-08-21T13:41:55;96876.16;;;27.26;52.46
25130;BME280;13308;50.860;13.664;2022-08-21T13:44:34;96871.34;;;26.75;53.75
25130;BME280;13308;50.860;13.664;2022-08-21T13:47:02;96873.81;;;28.26;57.66
25130;BME280;13308;50.860;13.664;2022-08-21T13:49:34;96876.91;;;28.28;48.60
25130;BME280;13308;50.860;13.664;2022-08-21T13:52:01;96876.19;;;28.46;49.70
25130;BME280;13308;50.860;13.664;2022-08-21T13:54:32;96876.66;;;28.26;53.54
25130;BME280;13308;50.860;13.664;2022-08-21T13:56:58;96868.41;;;28.28;53.91
25130;BME280;13308;50.860;13.664;2022-08-21T13:59:34;96864.88;;;27.15;53.64
25130;BME280;13308;50.860;13.664;2022-08-21T14:02:19;96868.00;;;27.11;52.33
25130;BME280;13308;50.860;13.664;2022-08-21T14:05:00;96866.47;;;27.93;50.24
25130;BME280;13308;50.860;13.664;2022-08-21T14:07:35;96867.13;;;28.05;51.30
25130;BME280;13308;50.860;13.664;2022-08-21T14:10:13;96864.22;;;28.10;48.05
25130;BME280;13308;50.860;13.664;2022-08-21T14:12:50;96870.59;;;28.59;48.23
25130;BME280;13308;50.860;13.664;2022-08-21T14:15:18;96868.78;;;28.93;51.19
25130;BME280;13308;50.860;13.664;2022-08-21T14:17:47;96869.66;;;28.51;49.92
25130;BME280;13308;50.860;13.664;2022-08-21T14:20:30;96872.41;;;28.56;47.71
25130;BME280;13308;50.860;13.664;2022-08-21T14:22:56;96869.75;;;28.21;47.11
25130;BME280;13308;50.860;13.664;2022-08-21T14:27:51;96873.47;;;28.35;47.26
25130;BME280;13308;50.860;13.664;2022-08-21T14:30:38;96864.25;;;28.29;50.01
25130;BME280;13308;50.860;13.664;2022-08-21T14:33:09;96864.16;;;29.40;48.54
25130;BME280;13308;50.860;13.664;2022-08-21T14:35:35;96866.56;;;29.04;46.69
25130;BME280;13308;50.860;13.664;2022-08-21T14:38:00;96862.19;;;28.05;48.17
25130;BME280;13308;50.860;13.664;2022-08-21T14:40:26;96861.75;;;28.01;50.08
25130;BME280;13308;50.860;13.664;2022-08-21T14:42:52;96857.47;;;28.13;49.98
25130;BME280;13308;50.860;13.664;2022-08-21T14:45:22;96855.88;;;28.92;50.25
25130;BME280;13308;50.860;13.664;2022-08-21T14:47:48;96860.38;;;29.19;48.78
25130;BME280;13308;50.860;13.664;2022-08-21T14:50:13;96861.50;;;28.79;44.82
25130;BME280;13308;50.860;13.664;2022-08-21T14:52:40;96863.97;;;28.88;46.36
25130;BME280;13308;50.860;13.664;2022-08-21T14:55:07;96862.59;;;28.57;49.24
25130;BME280;13308;50.860;13.664;2022-08-21T14:57:33;96857.00;;;28.52;49.16
25130;BME280;13308;50.860;13.664;2022-08-21T14:59:59;96856.38;;;27.98;48.42
25130;BME280;13308;50.860;13.664;2022-08-21T15:02:25;96851.97;;;27.73;49.66
25130;BME280;13308;50.860;13.664;2022-08-21T15:04:51;96856.19;;;27.07;51.14
25130;BME280;13308;50.860;13.664;2022-08-21T15:07:17;96846.13;;;26.77;52.24
25130;BME280;13308;50.860;13.664;2022-08-21T15:09:42;96846.22;;;26.09;52.65
25130;BME280;13308;50.860;13.664;2022-08-21T15:12:07;96859.28;;;26.23;52.52
25130;BME280;13308;50.860;13.664;2022-08-21T15:14:36;96850.63;;;25.88;53.05
25130;BME280;13308;50.860;13.664;2022-08-21T15:17:05;96841.78;;;25.40;57.18
25130;BME280;13308;50.860;13.664;2022-08-21T15:19:31;96837.94;;;24.77;54.79
25130;BME280;13308;50.860;13.664;2022-08-21T15:21:57;96825.47;;;24.14;57.49
25130;BME280;13308;50.860;13.664;2022-08-21T15:24:22;96832.66;;;24.15;59.07
25130;BME280;13308;50.860;13.664;2022-08-21T15:26:48;96825.09;;;23.37;58.41
25130;BME280;13308;50.860;13.664;2022-08-21T15:29:14;96827.22;;;22.80;65.60
25130;BME280;13308;50.860;13.664;2022-08-21T15:32:00;96832.75;;;22.69;61.18
25130;BME280;13308;50.860;13.664;2022-08-21T15:34:28;96830.22;;;22.20;63.23
25130;BME280;13308;50.860;13.664;2022-08-21T15:36:55;96826.44;;;22.03;64.29
25130;BME280;13308;50.860;13.664;2022-08-21T15:39:20;96822.94;;;21.68;67.78
25130;BME280;13308;50.860;13.664;2022-08-21T15:41:46;96827.16;;;21.78;66.34
25130;BME280;13308;50.860;13.664;2022-08-21T15:44:12;96829.72;;;21.61;69.33
25130;BME280;13308;50.860;13.664;2022-08-21T15:46:39;96825.69;;;21.48;66.35
25130;BME280;13308;50.860;13.664;2022-08-21T15:49:05;96829.31;;;21.14;70.73
25130;BME280;13308;50.860;13.664;2022-08-21T15:51:32;96820.47;;;21.01;72.23
25130;BME280;13308;50.860;13.664;2022-08-21T15:53:57;96829.34;;;20.99;68.74
25130;BME280;13308;50.860;13.664;2022-08-21T15:56:26;96824.22;;;20.98;70.32
25130;BME280;13308;50.860;13.664;2022-08-21T15:59:00;96813.69;;;20.64;72.10
25130;BME280;13308;50.860;13.664;2022-08-21T16:01:26;96815.03;;;20.83;71.78
25130;BME280;13308;50.860;13.664;2022-08-21T16:03:53;96819.97;;;20.88;71.20
25130;BME280;13308;50.860;13.664;2022-08-21T16:06:20;96819.41;;;20.84;72.71
25130;BME280;13308;50.860;13.664;2022-08-21T16:08:45;96812.53;;;20.85;73.11
25130;BME280;13308;50.860;13.664;2022-08-21T16:11:14;96808.06;;;20.78;74.41
25130;BME280;13308;50.860;13.664;2022-08-21T16:13:42;96804.81;;;20.51;78.67
25130;BME280;13308;50.860;13.664;2022-08-21T16:16:16;96797.66;;;20.64;75.13
25130;BME280;13308;50.860;13.664;2022-08-21T16:18:43;96813.31;;;20.71;75.70
25130;BME280;13308;50.860;13.664;2022-08-21T16:21:08;96809.81;;;20.90;75.09
25130;BME280;13308;50.860;13.664;2022-08-21T16:23:35;96806.97;;;21.05;78.28
25130;BME280;13308;50.860;13.664;2022-08-21T16:26:04;96814.03;;;21.35;78.35
25130;BME280;13308;50.860;13.664;2022-08-21T16:28:31;96812.97;;;21.87;77.18
25130;BME280;13308;50.860;13.664;2022-08-21T16:30:58;96825.56;;;22.17;77.36
25130;BME280;13308;50.860;13.664;2022-08-21T16:35:55;96828.28;;;22.82;71.09
25130;BME280;13308;50.860;13.664;2022-08-21T16:38:21;96820.94;;;22.65;71.41
25130;BME280;13308;50.860;13.664;2022-08-21T16:40:46;96820.19;;;22.39;72.86
25130;BME280;13308;50.860;13.664;2022-08-21T16:43:11;96812.53;;;21.94;76.22
25130;BME280;13308;50.860;13.664;2022-08-21T16:45:38;96817.00;;;21.66;78.94
25130;BME280;13308;50.860;13.664;2022-08-21T16:48:03;96804.38;;;21.56;79.53
25130;BME280;13308;50.860;13.664;2022-08-21T16:50:34;96809.13;;;21.30;81.24
25130;BME280;13308;50.860;13.664;2022-08-21T16:52:59;96808.63;;;21.11;79.29
25130;BME280;13308;50.860;13.664;2022-08-21T16:55:25;96797.53;;;20.88;81.86
25130;BME280;13308;50.860;13.664;2022-08-21T16:57:52;96794.47;;;20.57;82.93
25130;BME280;13308;50.860;13.664;2022-08-21T17:00:18;96787.63;;;20.43;84.10
25130;BME280;13308;50.860;13.664;2022-08-21T17:02:46;96790.53;;;20.20;85.07
25130;BME280;13308;50.860;13.664;2022-08-21T17:05:13;96795.84;;;20.47;83.42
25130;BME280;13308;50.860;13.664;2022-08-21T17:07:39;96779.66;;;19.98;88.20
25130;BME280;13308;50.860;13.664;2022-08-21T17:10:07;96794.91;;;19.83;86.31
25130;BME280;13308;50.860;13.664;2022-08-21T17:12:33;96795.47;;;19.87;87.45
25130;BME280;13308;50.860;13.664;2022-08-21T17:15:07;96785.78;;;19.59;89.51
25130;BME280;13308;50.860;13.664;2022-08-21T17:17:34;96784.00;;;19.47;92.37
25130;BME280;13308;50.860;13.664;2022-08-21T17:19:59;96782.91;;;19.21;93.85
25130;BME280;13308;50.860;13.664;2022-08-21T17:22:25;96787.75;;;19.11;94.48
25130;BME280;13308;50.860;13.664;2022-08-21T17:24:50;96778.41;;;18.91;94.29
25130;BME280;13308;50.860;13.664;2022-08-21T17:27:17;96784.41;;;18.75;93.41
25130;BME280;13308;50.860;13.664;2022-08-21T17:29:44;96783.34;;;18.73;93.98
25130;BME280;13308;50.860;13.664;2022-08-21T17:32:16;96781.03;;;18.62;95.10
